sensor_id;sensor_type;location;lat;lon;timestamp;P1;durP1;ratioP1;P2;durP2;ratioP2
59416;SDS011;45222;52.458;20.914;2023-02-13T00:03:40;28.20;;;18.90;;
59416;SDS011;45222;52.458;20.914;2023-02-13T00:07:25;29.90;;;10.70;;
59416;SDS011;45222;52.458;20.914;2023-02-13T00:11:11;29.80;;;12.30;;
59416;SDS011;45222;52.458;20.914;2023-02-13T00:14:57;33.40;;;22.80;;
59416;SDS011;45222;52.458;20.914;2023-02-13T00:18:42;31.90;;;12.50;;
59416;SDS011;45222;52.458;20.914;2023-02-13T00:22:28;41.30;;;14.50;;
59416;SDS011;45222;52.458;20.914;2023-02-13T00:26:13;34.00;;;13.70;;
59416;SDS011;45222;52.458;20.914;2023-02-13T00:30:00;30.30;;;19.50;;
59416;SDS011;45222;52.458;20.914;2023-02-13T00:33:46;30.80;;;12.50;;
59416;SDS011;45222;52.458;20.914;2023-02-13T00:37:32;32.30;;;12.90;;
59416;SDS011;45222;52.458;20.914;2023-02-13T00:41:18;25.80;;;18.10;;
59416;SDS011;45222;52.458;20.914;2023-02-13T00:45:04;25.50;;;10.70;;
59416;SDS011;45222;52.458;20.914;2023-02-13T00:48:50;26.50;;;11.60;;
59416;SDS011;45222;52.458;20.914;2023-02-13T00:52:36;33.60;;;22.80;;
59416;SDS011;45222;52.458;20.914;2023-02-13T00:56:21;29.00;;;19.60;;
59416;SDS011;45222;52.458;20.914;2023-02-13T01:00:09;28.60;;;19.40;;
59416;SDS011;45222;52.458;20.914;2023-02-13T01:03:55;28.40;;;19.40;;
59416;SDS011;45222;52.458;20.914;2023-02-13T01:07:41;31.10;;;13.20;;
59416;SDS011;45222;52.458;20.914;2023-02-13T01:11:27;28.60;;;13.00;;
59416;SDS011;45222;52.458;20.914;2023-02-13T01:15:12;25.10;;;17.00;;
59416;SDS011;45222;52.458;20.914;2023-02-13T01:18:57;25.50;;;17.70;;
59416;SDS011;45222;52.458;20.914;2023-02-13T01:22:43;28.80;;;12.30;;
59416;SDS011;45222;52.458;20.914;2023-02-13T01:26:28;26.80;;;19.80;;
59416;SDS011;45222;52.458;20.914;2023-02-13T01:30:14;26.30;;;18.00;;
59416;SDS011;45222;52.458;20.914;2023-02-13T01:34:01;23.30;;;16.90;;
59416;SDS011;45222;52.458;20.914;2023-02-13T01:37:46;22.90;;;16.50;;
59416;SDS011;45222;52.458;20.914;2023-02-13T01:41:32;22.50;;;15.50;;
59416;SDS011;45222;52.458;20.914;2023-02-13T01:45:22;24.00;;;15.30;;
59416;SDS011;45222;52.458;20.914;2023-02-13T01:49:11;23.40;;;15.70;;
59416;SDS011;45222;52.458;20.914;2023-02-13T01:53:01;22.40;;;16.00;;
59416;SDS011;45222;52.458;20.914;2023-02-13T01:56:51;23.30;;;10.30;;
59416;SDS011;45222;52.458;20.914;2023-02-13T02:00:41;22.20;;;14.20;;
59416;SDS011;45222;52.458;20.914;2023-02-13T02:04:32;21.40;;;13.80;;
59416;SDS011;45222;52.458;20.914;2023-02-13T02:08:21;21.00;;;14.10;;
59416;SDS011;45222;52.458;20.914;2023-02-13T02:12:08;19.50;;;13.50;;
59416;SDS011;45222;52.458;20.914;2023-02-13T02:15:57;23.60;;;15.40;;
59416;SDS011;45222;52.458;20.914;2023-02-13T02:19:46;20.60;;;13.80;;
59416;SDS011;45222;52.458;20.914;2023-02-13T02:23:46;20.30;;;10.30;;
59416;SDS011;45222;52.458;20.914;2023-02-13T02:28:03;20.40;;;13.50;;
59416;SDS011;45222;52.458;20.914;2023-02-13T02:32:12;20.60;;;13.00;;
59416;SDS011;45222;52.458;20.914;2023-02-13T02:36:18;18.50;;;13.80;;
59416;SDS011;45222;52.458;20.914;2023-02-13T02:40:17;21.20;;;14.40;;
59416;SDS011;45222;52.458;20.914;2023-02-13T02:44:14;19.80;;;13.80;;
59416;SDS011;45222;52.458;20.914;2023-02-13T02:48:06;28.20;;;10.90;;
59416;SDS011;45222;52.458;20.914;2023-02-13T02:52:17;20.50;;;13.80;;
59416;SDS011;45222;52.458;20.914;2023-02-13T02:56:10;21.10;;;13.00;;
59416;SDS011;45222;52.458;20.914;2023-02-13T03:00:01;19.20;;;14.10;;
59416;SDS011;45222;52.458;20.914;2023-02-13T03:04:01;21.50;;;14.40;;
59416;SDS011;45222;52.458;20.914;2023-02-13T03:08:06;23.90;;;15.30;;
59416;SDS011;45222;52.458;20.914;2023-02-13T03:11:52;19.30;;;13.20;;
59416;SDS011;45222;52.458;20.914;2023-02-13T03:15:58;19.30;;;13.60;;
59416;SDS011;45222;52.458;20.914;2023-02-13T03:20:13;19.90;;;14.00;;
59416;SDS011;45222;52.458;20.914;2023-02-13T03:24:37;21.50;;;15.10;;
59416;SDS011;45222;52.458;20.914;2023-02-13T03:28:32;21.50;;;15.00;;
59416;SDS011;45222;52.458;20.914;2023-02-13T03:32:42;21.10;;;10.90;;
59416;SDS011;45222;52.458;20.914;2023-02-13T03:36:41;20.90;;;13.60;;
59416;SDS011;45222;52.458;20.914;2023-02-13T03:40:49;18.10;;;13.50;;
59416;SDS011;45222;52.458;20.914;2023-02-13T03:49:36;21.90;;;9.30;;
59416;SDS011;45222;52.458;20.914;2023-02-13T03:53:43;22.20;;;10.20;;
59416;SDS011;45222;52.458;20.914;2023-02-13T03:57:34;21.60;;;14.50;;
59416;SDS011;45222;52.458;20.914;2023-02-13T04:01:41;21.00;;;14.30;;
59416;SDS011;45222;52.458;20.914;2023-02-13T04:05:32;21.80;;;10.20;;
59416;SDS011;45222;52.458;20.914;2023-02-13T04:09:23;18.60;;;12.90;;
59416;SDS011;45222;52.458;20.914;2023-02-13T04:13:12;18.40;;;14.30;;
59416;SDS011;45222;52.458;20.914;2023-02-13T04:17:02;19.80;;;14.40;;
59416;SDS011;45222;52.458;20.914;2023-02-13T04:20:50;21.40;;;15.90;;
59416;SDS011;45222;52.458;20.914;2023-02-13T04:24:35;21.00;;;15.30;;
59416;SDS011;45222;52.458;20.914;2023-02-13T04:28:21;19.20;;;14.40;;
59416;SDS011;45222;52.458;20.914;2023-02-13T04:32:07;20.60;;;14.60;;
59416;SDS011;45222;52.458;20.914;2023-02-13T04:35:53;22.90;;;9.70;;
59416;SDS011;45222;52.458;20.914;2023-02-13T04:39:39;21.40;;;10.30;;
59416;SDS011;45222;52.458;20.914;2023-02-13T04:43:25;22.60;;;10.60;;
59416;SDS011;45222;52.458;20.914;2023-02-13T04:47:10;20.60;;;14.80;;
59416;SDS011;45222;52.458;20.914;2023-02-13T04:50:56;23.80;;;17.50;;
59416;SDS011;45222;52.458;20.914;2023-02-13T04:54:41;25.00;;;16.10;;
59416;SDS011;45222;52.458;20.914;2023-02-13T04:58:27;23.90;;;14.80;;
59416;SDS011;45222;52.458;20.914;2023-02-13T05:02:12;21.70;;;14.80;;
59416;SDS011;45222;52.458;20.914;2023-02-13T05:05:58;19.80;;;9.60;;
59416;SDS011;45222;52.458;20.914;2023-02-13T05:09:43;20.90;;;15.40;;
59416;SDS011;45222;52.458;20.914;2023-02-13T05:13:29;22.30;;;15.80;;
59416;SDS011;45222;52.458;20.914;2023-02-13T05:17:14;22.90;;;17.20;;
59416;SDS011;45222;52.458;20.914;2023-02-13T05:21:00;26.40;;;19.20;;
59416;SDS011;45222;52.458;20.914;2023-02-13T05:25:04;23.40;;;16.60;;
59416;SDS011;45222;52.458;20.914;2023-02-13T05:28:49;22.80;;;15.80;;
59416;SDS011;45222;52.458;20.914;2023-02-13T05:32:53;20.50;;;15.60;;
59416;SDS011;45222;52.458;20.914;2023-02-13T05:36:39;21.00;;;15.10;;
59416;SDS011;45222;52.458;20.914;2023-02-13T05:40:24;22.70;;;15.30;;
59416;SDS011;45222;52.458;20.914;2023-02-13T05:44:10;24.20;;;16.90;;
59416;SDS011;45222;52.458;20.914;2023-02-13T05:47:56;23.10;;;17.60;;
59416;SDS011;45222;52.458;20.914;2023-02-13T05:51:41;22.00;;;16.20;;
59416;SDS011;45222;52.458;20.914;2023-02-13T05:55:29;21.10;;;15.20;;
59416;SDS011;45222;52.458;20.914;2023-02-13T05:59:14;19.80;;;14.60;;
59416;SDS011;45222;52.458;20.914;2023-02-13T06:02:59;22.60;;;15.00;;
59416;SDS011;45222;52.458;20.914;2023-02-13T06:06:45;20.40;;;15.50;;
59416;SDS011;45222;52.458;20.914;2023-02-13T06:10:31;21.60;;;15.90;;
59416;SDS011;45222;52.458;20.914;2023-02-13T06:14:16;19.90;;;15.60;;
59416;SDS011;45222;52.458;20.914;2023-02-13T06:18:01;21.70;;;10.30;;
59416;SDS011;45222;52.458;20.914;2023-02-13T06:21:46;22.00;;;14.40;;
59416;SDS011;45222;52.458;20.914;2023-02-13T06:25:32;21.40;;;14.00;;
59416;SDS011;45222;52.458;20.914;2023-02-13T06:29:18;19.40;;;13.00;;
59416;SDS011;45222;52.458;20.914;2023-02-13T06:33:04;20.30;;;14.50;;
59416;SDS011;45222;52.458;20.914;2023-02-13T06:36:49;20.00;;;15.30;;
59416;SDS011;45222;52.458;20.914;2023-02-13T06:40:35;21.90;;;14.40;;
59416;SDS011;45222;52.458;20.914;2023-02-13T06:44:20;20.60;;;14.30;;
59416;SDS011;45222;52.458;20.914;2023-02-13T06:48:05;19.90;;;13.50;;
59416;SDS011;45222;52.458;20.914;2023-02-13T06:51:51;20.10;;;9.70;;
59416;SDS011;45222;52.458;20.914;2023-02-13T06:55:36;19.20;;;8.50;;
59416;SDS011;45222;52.458;20.914;2023-02-13T06:59:22;21.60;;;14.40;;
59416;SDS011;45222;52.458;20.914;2023-02-13T07:03:08;19.30;;;8.50;;
59416;SDS011;45222;52.458;20.914;2023-02-13T07:06:54;22.70;;;15.20;;
59416;SDS011;45222;52.458;20.914;2023-02-13T07:10:40;21.50;;;13.50;;
59416;SDS011;45222;52.458;20.914;2023-02-13T07:14:44;23.10;;;9.70;;
59416;SDS011;45222;52.458;20.914;2023-02-13T07:18:29;18.90;;;12.50;;
59416;SDS011;45222;52.458;20.914;2023-02-13T07:22:14;17.10;;;11.80;;
59416;SDS011;45222;52.458;20.914;2023-02-13T07:26:00;17.90;;;12.20;;
59416;SDS011;45222;52.458;20.914;2023-02-13T07:29:46;17.70;;;12.20;;
59416;SDS011;45222;52.458;20.914;2023-02-13T07:33:31;20.80;;;8.10;;
59416;SDS011;45222;52.458;20.914;2023-02-13T07:37:16;15.20;;;10.50;;
59416;SDS011;45222;52.458;20.914;2023-02-13T07:41:02;14.00;;;10.30;;
59416;SDS011;45222;52.458;20.914;2023-02-13T07:44:48;16.70;;;7.00;;
59416;SDS011;45222;52.458;20.914;2023-02-13T07:48:33;14.90;;;9.80;;
59416;SDS011;45222;52.458;20.914;2023-02-13T07:52:19;16.50;;;9.60;;
59416;SDS011;45222;52.458;20.914;2023-02-13T07:56:05;12.50;;;8.10;;
59416;SDS011;45222;52.458;20.914;2023-02-13T07:59:50;11.70;;;7.10;;
59416;SDS011;45222;52.458;20.914;2023-02-13T08:03:35;12.10;;;7.20;;
59416;SDS011;45222;52.458;20.914;2023-02-13T08:07:21;13.70;;;5.90;;
59416;SDS011;45222;52.458;20.914;2023-02-13T08:11:09;10.90;;;6.70;;
59416;SDS011;45222;52.458;20.914;2023-02-13T08:15:23;10.90;;;7.10;;
59416;SDS011;45222;52.458;20.914;2023-02-13T08:19:09;11.60;;;6.80;;
59416;SDS011;45222;52.458;20.914;2023-02-13T08:22:57;11.20;;;6.50;;
59416;SDS011;45222;52.458;20.914;2023-02-13T08:26:46;11.00;;;6.70;;
59416;SDS011;45222;52.458;20.914;2023-02-13T08:30:32;10.00;;;6.40;;
59416;SDS011;45222;52.458;20.914;2023-02-13T08:34:17;13.60;;;6.20;;
59416;SDS011;45222;52.458;20.914;2023-02-13T08:38:03;11.30;;;6.70;;
59416;SDS011;45222;52.458;20.914;2023-02-13T08:41:48;9.40;;;5.90;;
59416;SDS011;45222;52.458;20.914;2023-02-13T08:45:34;10.00;;;6.00;;
59416;SDS011;45222;52.458;20.914;2023-02-13T08:49:20;11.10;;;6.00;;
59416;SDS011;45222;52.458;20.914;2023-02-13T08:53:05;11.50;;;6.60;;
59416;SDS011;45222;52.458;20.914;2023-02-13T08:56:51;10.70;;;6.60;;
59416;SDS011;45222;52.458;20.914;2023-02-13T09:00:36;11.20;;;5.80;;
59416;SDS011;45222;52.458;20.914;2023-02-13T09:04:21;10.20;;;5.60;;
59416;SDS011;45222;52.458;20.914;2023-02-13T09:08:07;10.10;;;5.70;;
59416;SDS011;45222;52.458;20.914;2023-02-13T09:11:54;9.80;;;5.90;;
59416;SDS011;45222;52.458;20.914;2023-02-13T09:15:40;10.70;;;6.60;;
59416;SDS011;45222;52.458;20.914;2023-02-13T09:19:26;11.10;;;6.60;;
59416;SDS011;45222;52.458;20.914;2023-02-13T09:23:11;10.70;;;5.90;;
59416;SDS011;45222;52.458;20.914;2023-02-13T09:26:57;10.40;;;6.40;;
59416;SDS011;45222;52.458;20.914;2023-02-13T09:30:42;11.00;;;6.80;;
59416;SDS011;45222;52.458;20.914;2023-02-13T09:34:27;10.90;;;7.70;;
59416;SDS011;45222;52.458;20.914;2023-02-13T09:38:13;11.60;;;7.40;;
59416;SDS011;45222;52.458;20.914;2023-02-13T09:41:58;11.60;;;7.90;;
59416;SDS011;45222;52.458;20.914;2023-02-13T09:45:45;12.70;;;8.30;;
59416;SDS011;45222;52.458;20.914;2023-02-13T09:49:34;12.30;;;8.90;;
59416;SDS011;45222;52.458;20.914;2023-02-13T09:53:23;13.30;;;9.20;;
59416;SDS011;45222;52.458;20.914;2023-02-13T09:57:14;13.70;;;9.00;;
59416;SDS011;45222;52.458;20.914;2023-02-13T10:01:04;12.20;;;7.70;;
59416;SDS011;45222;52.458;20.914;2023-02-13T10:05:02;12.40;;;8.00;;
59416;SDS011;45222;52.458;20.914;2023-02-13T10:09:05;12.30;;;8.40;;
59416;SDS011;45222;52.458;20.914;2023-02-13T10:12:58;13.50;;;9.10;;
59416;SDS011;45222;52.458;20.914;2023-02-13T10:16:58;14.00;;;8.60;;
59416;SDS011;45222;52.458;20.914;2023-02-13T10:20:50;14.90;;;9.30;;
59416;SDS011;45222;52.458;20.914;2023-02-13T10:24:40;14.10;;;8.60;;
59416;SDS011;45222;52.458;20.914;2023-02-13T10:28:31;14.00;;;9.40;;
59416;SDS011;45222;52.458;20.914;2023-02-13T10:32:23;14.20;;;10.70;;
59416;SDS011;45222;52.458;20.914;2023-02-13T10:36:14;18.00;;;11.20;;
59416;SDS011;45222;52.458;20.914;2023-02-13T10:40:04;15.80;;;11.40;;
59416;SDS011;45222;52.458;20.914;2023-02-13T10:44:02;17.60;;;12.50;;
59416;SDS011;45222;52.458;20.914;2023-02-13T10:48:01;25.40;;;19.60;;
59416;SDS011;45222;52.458;20.914;2023-02-13T10:51:58;17.10;;;12.70;;
59416;SDS011;45222;52.458;20.914;2023-02-13T10:56:01;16.00;;;12.70;;
59416;SDS011;45222;52.458;20.914;2023-02-13T11:00:03;17.80;;;12.10;;
59416;SDS011;45222;52.458;20.914;2023-02-13T11:04:00;16.70;;;11.00;;
59416;SDS011;45222;52.458;20.914;2023-02-13T11:07:49;17.40;;;13.40;;
59416;SDS011;45222;52.458;20.914;2023-02-13T11:11:35;16.60;;;13.10;;
59416;SDS011;45222;52.458;20.914;2023-02-13T11:15:23;17.80;;;10.10;;
59416;SDS011;45222;52.458;20.914;2023-02-13T11:27:21;18.10;;;13.20;;
59416;SDS011;45222;52.458;20.914;2023-02-13T11:31:12;24.60;;;21.30;;
59416;SDS011;45222;52.458;20.914;2023-02-13T11:35:24;22.30;;;17.40;;
59416;SDS011;45222;52.458;20.914;2023-02-13T11:39:16;17.40;;;13.70;;
59416;SDS011;45222;52.458;20.914;2023-02-13T11:43:04;26.00;;;20.90;;
59416;SDS011;45222;52.458;20.914;2023-02-13T11:46:52;21.10;;;15.20;;
59416;SDS011;45222;52.458;20.914;2023-02-13T11:50:38;19.70;;;14.70;;
59416;SDS011;45222;52.458;20.914;2023-02-13T11:54:29;22.40;;;16.30;;
59416;SDS011;45222;52.458;20.914;2023-02-13T11:58:23;18.90;;;13.80;;
59416;SDS011;45222;52.458;20.914;2023-02-13T12:02:20;22.10;;;15.60;;
59416;SDS011;45222;52.458;20.914;2023-02-13T12:06:10;23.00;;;15.50;;
59416;SDS011;45222;52.458;20.914;2023-02-13T12:09:59;19.70;;;15.00;;
59416;SDS011;45222;52.458;20.914;2023-02-13T12:13:49;18.00;;;13.70;;
59416;SDS011;45222;52.458;20.914;2023-02-13T12:17:36;15.50;;;11.90;;
59416;SDS011;45222;52.458;20.914;2023-02-13T12:21:29;16.90;;;11.30;;
59416;SDS011;45222;52.458;20.914;2023-02-13T12:25:30;15.00;;;10.40;;
59416;SDS011;45222;52.458;20.914;2023-02-13T12:29:41;15.60;;;10.00;;
59416;SDS011;45222;52.458;20.914;2023-02-13T12:37:59;13.90;;;10.30;;
59416;SDS011;45222;52.458;20.914;2023-02-13T12:41:56;13.60;;;10.20;;
59416;SDS011;45222;52.458;20.914;2023-02-13T12:46:00;20.10;;;14.90;;
59416;SDS011;45222;52.458;20.914;2023-02-13T12:54:17;17.40;;;12.90;;
59416;SDS011;45222;52.458;20.914;2023-02-13T13:02:39;15.10;;;9.60;;
59416;SDS011;45222;52.458;20.914;2023-02-13T13:06:37;12.80;;;8.20;;
59416;SDS011;45222;52.458;20.914;2023-02-13T13:10:39;14.10;;;8.20;;
59416;SDS011;45222;52.458;20.914;2023-02-13T13:14:36;14.50;;;9.20;;
59416;SDS011;45222;52.458;20.914;2023-02-13T13:18:31;11.70;;;8.50;;
59416;SDS011;45222;52.458;20.914;2023-02-13T13:22:26;13.70;;;8.50;;
59416;SDS011;45222;52.458;20.914;2023-02-13T13:26:19;12.70;;;7.80;;
59416;SDS011;45222;52.458;20.914;2023-02-13T13:30:13;13.20;;;7.60;;
59416;SDS011;45222;52.458;20.914;2023-02-13T13:34:06;13.70;;;9.10;;
59416;SDS011;45222;52.458;20.914;2023-02-13T13:38:00;13.90;;;8.80;;
59416;SDS011;45222;52.458;20.914;2023-02-13T13:41:56;11.30;;;7.10;;
59416;SDS011;45222;52.458;20.914;2023-02-13T13:45:51;12.30;;;6.90;;
59416;SDS011;45222;52.458;20.914;2023-02-13T13:49:51;10.10;;;6.90;;
59416;SDS011;45222;52.458;20.914;2023-02-13T13:53:40;11.60;;;7.70;;
59416;SDS011;45222;52.458;20.914;2023-02-13T13:58:17;11.60;;;6.90;;
59416;SDS011;45222;52.458;20.914;2023-02-13T14:06:26;13.60;;;8.40;;
59416;SDS011;45222;52.458;20.914;2023-02-13T14:14:45;14.70;;;8.40;;
59416;SDS011;45222;52.458;20.914;2023-02-13T14:18:31;13.90;;;8.10;;
59416;SDS011;45222;52.458;20.914;2023-02-13T14:22:31;13.00;;;7.60;;
59416;SDS011;45222;52.458;20.914;2023-02-13T14:26:24;12.00;;;8.10;;
59416;SDS011;45222;52.458;20.914;2023-02-13T14:30:25;13.00;;;8.70;;
59416;SDS011;45222;52.458;20.914;2023-02-13T14:34:17;13.00;;;8.00;;
59416;SDS011;45222;52.458;20.914;2023-02-13T14:38:19;11.90;;;7.70;;
59416;SDS011;45222;52.458;20.914;2023-02-13T14:42:20;13.50;;;8.40;;
59416;SDS011;45222;52.458;20.914;2023-02-13T14:46:14;13.20;;;8.90;;
59416;SDS011;45222;52.458;20.914;2023-02-13T14:50:07;12.10;;;7.40;;
59416;SDS011;45222;52.458;20.914;2023-02-13T14:54:07;12.10;;;7.00;;
59416;SDS011;45222;52.458;20.914;2023-02-13T14:58:04;13.70;;;8.60;;
59416;SDS011;45222;52.458;20.914;2023-02-13T15:01:56;15.60;;;9.20;;
59416;SDS011;45222;52.458;20.914;2023-02-13T15:05:48;13.80;;;8.50;;
59416;SDS011;45222;52.458;20.914;2023-02-13T15:09:36;13.60;;;8.60;;
59416;SDS011;45222;52.458;20.914;2023-02-13T15:13:24;15.50;;;9.80;;
59416;SDS011;45222;52.458;20.914;2023-02-13T15:17:16;16.00;;;9.30;;
59416;SDS011;45222;52.458;20.914;2023-02-13T15:21:03;15.00;;;9.20;;
59416;SDS011;45222;52.458;20.914;2023-02-13T15:24:49;18.10;;;10.40;;
59416;SDS011;45222;52.458;20.914;2023-02-13T15:28:35;16.20;;;9.50;;
59416;SDS011;45222;52.458;20.914;2023-02-13T15:32:24;13.60;;;8.90;;
59416;SDS011;45222;52.458;20.914;2023-02-13T15:36:15;13.70;;;8.90;;
59416;SDS011;45222;52.458;20.914;2023-02-13T15:40:15;14.10;;;9.00;;
59416;SDS011;45222;52.458;20.914;2023-02-13T15:44:05;15.40;;;9.40;;
59416;SDS011;45222;52.458;20.914;2023-02-13T15:48:00;12.80;;;9.40;;
59416;SDS011;45222;52.458;20.914;2023-02-13T15:51:45;13.70;;;8.20;;
59416;SDS011;45222;52.458;20.914;2023-02-13T15:55:32;14.70;;;8.40;;
59416;SDS011;45222;52.458;20.914;2023-02-13T15:59:21;12.60;;;6.70;;
59416;SDS011;45222;52.458;20.914;2023-02-13T16:03:11;13.50;;;5.50;;
59416;SDS011;45222;52.458;20.914;2023-02-13T16:06:58;13.00;;;8.10;;
59416;SDS011;45222;52.458;20.914;2023-02-13T16:10:44;14.70;;;7.40;;
59416;SDS011;45222;52.458;20.914;2023-02-13T16:14:30;11.30;;;6.50;;
59416;SDS011;45222;52.458;20.914;2023-02-13T16:18:18;13.00;;;7.50;;
59416;SDS011;45222;52.458;20.914;2023-02-13T16:22:26;14.40;;;7.70;;
59416;SDS011;45222;52.458;20.914;2023-02-13T16:26:15;12.00;;;6.70;;
59416;SDS011;45222;52.458;20.914;2023-02-13T16:30:01;11.40;;;6.10;;
59416;SDS011;45222;52.458;20.914;2023-02-13T16:33:50;11.10;;;4.60;;
59416;SDS011;45222;52.458;20.914;2023-02-13T16:37:47;14.30;;;8.60;;
59416;SDS011;45222;52.458;20.914;2023-02-13T16:41:35;17.40;;;9.90;;
59416;SDS011;45222;52.458;20.914;2023-02-13T16:45:20;17.10;;;9.70;;
59416;SDS011;45222;52.458;20.914;2023-02-13T16:53:12;14.50;;;6.80;;
59416;SDS011;45222;52.458;20.914;2023-02-13T16:57:00;16.80;;;9.50;;
59416;SDS011;45222;52.458;20.914;2023-02-13T17:00:49;13.80;;;7.80;;
59416;SDS011;45222;52.458;20.914;2023-02-13T17:04:34;13.80;;;7.80;;
59416;SDS011;45222;52.458;20.914;2023-02-13T17:08:21;12.50;;;7.00;;
59416;SDS011;45222;52.458;20.914;2023-02-13T17:12:11;18.20;;;9.20;;
59416;SDS011;45222;52.458;20.914;2023-02-13T17:15:59;17.20;;;9.60;;
59416;SDS011;45222;52.458;20.914;2023-02-13T17:19:44;14.10;;;8.20;;
59416;SDS011;45222;52.458;20.914;2023-02-13T17:23:30;14.20;;;8.20;;
59416;SDS011;45222;52.458;20.914;2023-02-13T17:27:16;12.00;;;6.90;;
59416;SDS011;45222;52.458;20.914;2023-02-13T17:31:01;13.20;;;6.70;;
59416;SDS011;45222;52.458;20.914;2023-02-13T17:34:47;13.40;;;7.00;;
59416;SDS011;45222;52.458;20.914;2023-02-13T17:38:32;12.20;;;7.10;;
59416;SDS011;45222;52.458;20.914;2023-02-13T17:42:19;12.50;;;7.00;;
59416;SDS011;45222;52.458;20.914;2023-02-13T17:46:06;13.20;;;7.30;;
59416;SDS011;45222;52.458;20.914;2023-02-13T17:49:51;13.30;;;7.40;;
59416;SDS011;45222;52.458;20.914;2023-02-13T17:53:37;13.90;;;8.00;;
59416;SDS011;45222;52.458;20.914;2023-02-13T17:57:22;16.10;;;8.70;;
59416;SDS011;45222;52.458;20.914;2023-02-13T18:01:09;15.20;;;8.10;;
59416;SDS011;45222;52.458;20.914;2023-02-13T18:04:57;12.50;;;7.50;;
59416;SDS011;45222;52.458;20.914;2023-02-13T18:08:45;14.70;;;8.20;;
59416;SDS011;45222;52.458;20.914;2023-02-13T18:12:34;14.90;;;9.40;;
59416;SDS011;45222;52.458;20.914;2023-02-13T18:16:22;14.70;;;9.00;;
59416;SDS011;45222;52.458;20.914;2023-02-13T18:20:10;15.30;;;8.20;;
59416;SDS011;45222;52.458;20.914;2023-02-13T18:23:58;15.80;;;8.60;;
59416;SDS011;45222;52.458;20.914;2023-02-13T18:27:43;13.60;;;9.10;;
59416;SDS011;45222;52.458;20.914;2023-02-13T18:31:28;13.00;;;7.50;;
59416;SDS011;45222;52.458;20.914;2023-02-13T18:35:14;15.50;;;7.60;;
59416;SDS011;45222;52.458;20.914;2023-02-13T18:39:01;13.50;;;8.00;;
59416;SDS011;45222;52.458;20.914;2023-02-13T18:42:46;13.40;;;7.50;;
59416;SDS011;45222;52.458;20.914;2023-02-13T18:50:19;12.10;;;7.40;;
59416;SDS011;45222;52.458;20.914;2023-02-13T18:54:04;11.70;;;7.70;;
59416;SDS011;45222;52.458;20.914;2023-02-13T18:57:51;14.10;;;8.30;;
59416;SDS011;45222;52.458;20.914;2023-02-13T19:01:36;13.50;;;8.00;;
59416;SDS011;45222;52.458;20.914;2023-02-13T19:05:21;13.80;;;8.10;;
59416;SDS011;45222;52.458;20.914;2023-02-13T19:09:07;13.60;;;7.70;;
59416;SDS011;45222;52.458;20.914;2023-02-13T19:12:53;13.20;;;7.50;;
59416;SDS011;45222;52.458;20.914;2023-02-13T19:16:38;13.20;;;8.20;;
59416;SDS011;45222;52.458;20.914;2023-02-13T19:20:23;13.70;;;7.90;;
59416;SDS011;45222;52.458;20.914;2023-02-13T19:24:10;15.30;;;8.20;;
59416;SDS011;45222;52.458;20.914;2023-02-13T19:27:57;12.40;;;7.90;;
59416;SDS011;45222;52.458;20.914;2023-02-13T19:31:42;15.70;;;8.90;;
59416;SDS011;45222;52.458;20.914;2023-02-13T19:35:28;12.10;;;4.90;;
59416;SDS011;45222;52.458;20.914;2023-02-13T19:39:13;15.10;;;8.60;;
59416;SDS011;45222;52.458;20.914;2023-02-13T19:42:58;15.00;;;9.20;;
59416;SDS011;45222;52.458;20.914;2023-02-13T19:46:44;13.20;;;7.40;;
59416;SDS011;45222;52.458;20.914;2023-02-13T19:50:29;14.10;;;7.40;;
59416;SDS011;45222;52.458;20.914;2023-02-13T19:54:14;13.40;;;7.60;;
59416;SDS011;45222;52.458;20.914;2023-02-13T19:58:00;13.30;;;7.80;;
59416;SDS011;45222;52.458;20.914;2023-02-13T20:01:45;13.00;;;7.10;;
59416;SDS011;45222;52.458;20.914;2023-02-13T20:05:30;14.10;;;7.90;;
59416;SDS011;45222;52.458;20.914;2023-02-13T20:09:29;16.60;;;5.40;;
59416;SDS011;45222;52.458;20.914;2023-02-13T20:13:15;13.60;;;6.80;;
59416;SDS011;45222;52.458;20.914;2023-02-13T20:17:00;13.10;;;7.30;;
59416;SDS011;45222;52.458;20.914;2023-02-13T20:20:46;11.80;;;5.00;;
59416;SDS011;45222;52.458;20.914;2023-02-13T20:24:31;12.60;;;7.30;;
59416;SDS011;45222;52.458;20.914;2023-02-13T20:28:17;12.50;;;6.30;;
59416;SDS011;45222;52.458;20.914;2023-02-13T20:32:02;12.30;;;6.50;;
59416;SDS011;45222;52.458;20.914;2023-02-13T20:35:48;14.00;;;6.80;;
59416;SDS011;45222;52.458;20.914;2023-02-13T20:39:33;12.60;;;7.10;;
59416;SDS011;45222;52.458;20.914;2023-02-13T20:43:20;12.90;;;7.30;;
59416;SDS011;45222;52.458;20.914;2023-02-13T20:47:05;11.80;;;6.70;;
59416;SDS011;45222;52.458;20.914;2023-02-13T20:50:56;16.40;;;8.80;;
59416;SDS011;45222;52.458;20.914;2023-02-13T20:54:41;15.60;;;8.50;;
59416;SDS011;45222;52.458;20.914;2023-02-13T20:58:27;16.60;;;9.00;;
59416;SDS011;45222;52.458;20.914;2023-02-13T21:02:12;14.40;;;6.90;;
59416;SDS011;45222;52.458;20.914;2023-02-13T21:05:57;12.10;;;6.60;;
59416;SDS011;45222;52.458;20.914;2023-02-13T21:09:43;12.80;;;6.60;;
59416;SDS011;45222;52.458;20.914;2023-02-13T21:13:28;10.10;;;5.00;;
59416;SDS011;45222;52.458;20.914;2023-02-13T21:17:15;13.10;;;6.90;;
59416;SDS011;45222;52.458;20.914;2023-02-13T21:21:00;11.50;;;4.50;;
59416;SDS011;45222;52.458;20.914;2023-02-13T21:24:48;12.10;;;6.30;;
59416;SDS011;45222;52.458;20.914;2023-02-13T21:28:33;12.10;;;5.80;;
59416;SDS011;45222;52.458;20.914;2023-02-13T21:32:20;12.50;;;5.90;;
59416;SDS011;45222;52.458;20.914;2023-02-13T21:36:06;12.70;;;6.90;;
59416;SDS011;45222;52.458;20.914;2023-02-13T21:39:53;12.00;;;6.60;;
59416;SDS011;45222;52.458;20.914;2023-02-13T21:43:39;15.50;;;4.90;;
59416;SDS011;45222;52.458;20.914;2023-02-13T21:47:29;12.00;;;6.10;;
59416;SDS011;45222;52.458;20.914;2023-02-13T21:51:14;12.60;;;5.90;;
59416;SDS011;45222;52.458;20.914;2023-02-13T21:55:01;12.80;;;7.90;;
59416;SDS011;45222;52.458;20.914;2023-02-13T21:58:47;14.70;;;7.30;;
59416;SDS011;45222;52.458;20.914;2023-02-13T22:02:33;13.10;;;6.90;;
59416;SDS011;45222;52.458;20.914;2023-02-13T22:06:20;11.10;;;6.40;;
59416;SDS011;45222;52.458;20.914;2023-02-13T22:10:07;12.10;;;6.60;;
59416;SDS011;45222;52.458;20.914;2023-02-13T22:13:54;12.20;;;6.30;;
59416;SDS011;45222;52.458;20.914;2023-02-13T22:17:40;13.20;;;7.30;;
59416;SDS011;45222;52.458;20.914;2023-02-13T22:21:26;14.00;;;7.40;;
59416;SDS011;45222;52.458;20.914;2023-02-13T22:25:13;12.70;;;6.40;;
59416;SDS011;45222;52.458;20.914;2023-02-13T22:29:00;12.40;;;7.40;;
59416;SDS011;45222;52.458;20.914;2023-02-13T22:32:47;12.90;;;7.00;;
59416;SDS011;45222;52.458;20.914;2023-02-13T22:36:33;13.20;;;7.50;;
59416;SDS011;45222;52.458;20.914;2023-02-13T22:40:21;12.00;;;6.20;;
59416;SDS011;45222;52.458;20.914;2023-02-13T22:44:06;13.50;;;6.30;;
59416;SDS011;45222;52.458;20.914;2023-02-13T22:47:52;13.00;;;4.90;;
59416;SDS011;45222;52.458;20.914;2023-02-13T22:51:37;11.00;;;4.80;;
59416;SDS011;45222;52.458;20.914;2023-02-13T22:55:23;12.10;;;7.10;;
59416;SDS011;45222;52.458;20.914;2023-02-13T22:59:08;13.00;;;6.80;;